Time;durP1;ratioP1;P1;durP2;ratioP2;P2;SDS_P1;SDS_P2;PMS_P1;PMS_P2;Temp;Humidity;BMP_temperature;BMP_pressure;BME280_temperature;BME280_humidity;BME280_pressure;Samples;Min_cycle;Max_cycle;Signal;HPM_P1;HPM_P2
2022/04/12 00:00:29;;;;;;;3.83;3.53;;;;;;;5.22;86.40;99958.22;5111203;28;20206;-67
2022/04/12 00:02:56;;;;;;;3.00;2.90;;;;;;;5.22;85.89;99958.22;5110925;28;20293;-67
2022/04/12 00:05:23;;;;;;;3.57;3.37;;;;;;;5.20;86.33;99959.88;5111318;28;20235;-67
2022/04/12 00:07:52;;;;;;;6.90;3.20;;;;;;;5.16;87.27;99953.13;5109791;28;20199;-67
2022/04/12 00:10:19;;;;;;;3.53;3.33;;;;;;;5.17;87.25;99954.81;5113000;28;20302;-67
2022/04/12 00:12:46;;;;;;;3.47;3.27;;;;;;;5.20;87.18;99959.88;5110930;28;20282;-67
2022/04/12 00:15:13;;;;;;;3.50;3.40;;;;;;;5.20;87.03;99954.81;5111189;28;20248;-67
2022/04/12 00:20:26;;;;;;;4.53;3.07;;;;;;;5.16;86.31;99958.22;5107403;28;20278;-67
2022/04/12 00:22:55;;;;;;;3.10;2.90;;;;;;;5.20;86.33;99966.69;5109824;28;20248;-67
2022/04/12 00:25:23;;;;;;;3.07;2.80;;;;;;;5.21;85.72;99964.13;5111028;28;20285;-67
2022/04/12 00:27:51;;;;;;;3.97;3.77;;;;;;;5.10;85.99;99953.13;5109871;28;20224;-66
2022/04/12 00:30:19;;;;;;;6.57;3.53;;;;;;;5.01;86.90;99953.09;5111376;28;20203;-67
2022/04/12 00:32:47;;;;;;;3.20;3.00;;;;;;;4.98;87.22;99948.03;5110547;28;20199;-67
2022/04/12 00:35:14;;;;;;;3.87;3.67;;;;;;;4.91;87.72;99948.84;5111027;28;20283;-67
2022/04/12 00:37:41;;;;;;;3.47;3.23;;;;;;;4.89;88.56;99948.00;5110551;28;20202;-67
2022/04/12 00:40:10;;;;;;;5.40;3.90;;;;;;;4.80;88.88;99942.94;5110423;28;20191;-67
2022/04/12 00:42:38;;;;;;;4.13;3.83;;;;;;;4.71;89.18;99950.53;5110304;28;20211;-66
2022/04/12 00:45:05;;;;;;;5.67;3.93;;;;;;;4.59;89.86;99941.19;5110564;28;20198;-67
2022/04/12 00:47:32;;;;;;;3.40;3.30;;;;;;;4.51;90.16;99945.41;5110719;28;20203;-67
2022/04/12 00:49:59;;;;;;;4.37;4.07;;;;;;;4.46;90.67;99944.53;5114673;27;20205;-67
2022/04/12 00:52:28;;;;;;;3.47;3.27;;;;;;;4.45;90.59;99950.47;5114341;28;20328;-67
2022/04/12 00:54:55;;;;;;;3.67;3.50;;;;;;;4.42;90.73;99949.59;5115248;27;20273;-66
2022/04/12 00:57:24;;;;;;;3.37;3.07;;;;;;;4.42;91.13;99945.38;5114381;28;20286;-67
2022/04/12 00:59:54;;;;;;;3.67;3.47;;;;;;;4.43;90.47;99948.75;5115099;27;20191;-67
2022/04/12 01:02:22;;;;;;;3.90;3.47;;;;;;;4.39;90.80;99940.31;5114053;28;20217;-66
2022/04/12 01:04:49;;;;;;;3.50;3.30;;;;;;;4.30;91.08;99926.72;5114061;28;20290;-66
2022/04/12 01:07:16;;;;;;;3.60;3.40;;;;;;;4.42;90.28;99934.38;5115462;27;20297;-67
2022/04/12 01:09:43;;;;;;;3.13;2.93;;;;;;;4.36;90.20;99931.81;5114306;28;20578;-66
2022/04/12 01:12:12;;;;;;;3.43;3.23;;;;;;;4.37;90.35;99930.97;5113923;28;20197;-67
2022/04/12 01:14:40;;;;;;;3.37;3.17;;;;;;;4.37;90.18;99936.03;5114009;28;20290;-67
2022/04/12 01:17:08;;;;;;;3.00;2.80;;;;;;;4.21;90.03;99920.75;5112919;28;20210;-67
2022/04/12 01:19:35;;;;;;;4.20;3.90;;;;;;;4.35;90.10;99932.66;5112615;28;20198;-66
2022/04/12 01:22:04;;;;;;;2.80;2.70;;;;;;;4.36;89.39;99924.22;5113125;28;20219;-67
2022/04/12 01:24:34;;;;;;;3.20;3.00;;;;;;;4.35;89.40;99930.97;5113792;28;20646;-67
2022/04/12 01:27:01;;;;;;;3.20;3.00;;;;;;;4.41;89.52;99937.75;5113552;28;20590;-66
2022/04/12 01:29:34;;;;;;;3.33;3.03;;;;;;;4.41;88.98;99932.66;5114064;27;20615;-67
2022/04/12 01:32:02;;;;;;;4.27;3.60;;;;;;;4.42;89.16;99934.38;5113389;28;20651;-66
2022/04/12 01:34:29;;;;;;;3.53;3.30;;;;;;;4.38;89.19;99933.50;5113546;28;20255;-67
2022/04/12 01:36:56;;;;;;;3.40;3.00;;;;;;;4.34;89.89;99931.81;5113291;28;20282;-66
2022/04/12 01:39:23;;;;;;;3.60;2.70;;;;;;;4.28;90.56;99938.53;5115469;27;20705;-67
2022/04/12 01:41:52;;;;;;;3.33;3.13;;;;;;;4.21;90.57;99941.06;5113216;28;20753;-66
2022/04/12 01:44:18;;;;;;;2.87;2.67;;;;;;;4.21;90.82;99941.06;5113039;28;20748;-67
2022/04/12 01:46:45;;;;;;;3.57;3.33;;;;;;;4.21;91.21;99941.06;5114223;27;20285;-67
2022/04/12 01:49:12;;;;;;;2.77;2.67;;;;;;;4.22;91.06;99942.78;5114445;27;20281;-66
2022/04/12 01:51:39;;;;;;;3.10;2.90;;;;;;;4.20;91.27;99938.53;5113225;28;20199;-67
2022/04/12 01:54:06;;;;;;;3.30;3.03;;;;;;;4.20;91.33;99939.34;5113044;28;20222;-67
2022/04/12 01:56:33;;;;;;;3.03;2.93;;;;;;;4.18;91.30;99938.53;5113274;28;20191;-66
2022/04/12 01:59:04;;;;;;;3.47;3.27;;;;;;;4.20;91.72;99941.91;5112948;27;20282;-67
2022/04/12 02:01:31;;;;;;;4.07;3.77;;;;;;;4.18;91.87;99940.19;5112662;28;20252;-67
2022/04/12 02:03:58;;;;;;;4.50;4.23;;;;;;;3.98;93.45;99936.72;5113113;28;20401;-66
2022/04/12 02:06:28;;;;;;;4.87;4.57;;;;;;;3.90;93.63;99928.25;5113012;28;20644;-67
2022/04/12 02:08:55;;;;;;;4.13;3.83;;;;;;;3.89;93.91;99937.53;5110334;27;20201;-67
2022/04/12 02:11:22;;;;;;;6.30;4.43;;;;;;;3.87;93.95;99935.84;5112654;28;20194;-67
2022/04/12 02:13:49;;;;;;;3.80;3.50;;;;;;;3.82;94.15;99935.81;5112790;28;20631;-66
2022/04/12 02:16:18;;;;;;;3.87;3.57;;;;;;;3.72;94.78;99939.13;5111010;28;20207;-67
2022/04/12 02:18:44;;;;;;;4.40;4.03;;;;;;;3.70;94.65;99938.28;5112715;27;20712;-67
2022/04/12 02:21:11;;;;;;;4.00;3.70;;;;;;;3.69;95.22;99934.88;5112743;28;20213;-67
2022/04/12 02:23:38;;;;;;;5.37;4.07;;;;;;;3.61;95.03;99920.47;5112222;28;20211;-67
2022/04/12 02:26:05;;;;;;;4.00;3.70;;;;;;;3.70;94.66;99941.66;5112452;28;20277;-66
2022/04/12 02:28:32;;;;;;;3.90;3.70;;;;;;;3.72;94.84;99939.13;5112402;28;20202;-66
2022/04/12 02:30:59;;;;;;;4.67;4.27;;;;;;;3.70;94.89;99936.59;5112576;28;20741;-67
2022/04/12 02:33:27;;;;;;;4.30;4.10;;;;;;;3.65;94.83;99933.16;5112273;28;20195;-65
2022/04/12 02:35:54;;;;;;;4.67;3.93;;;;;;;3.56;94.89;99933.13;5113542;27;20286;-66
2022/04/12 02:38:21;;;;;;;3.93;3.63;;;;;;;3.55;95.19;99935.66;5113022;27;20714;-66
2022/04/12 02:40:48;;;;;;;4.40;4.17;;;;;;;3.49;95.79;99931.38;5111964;28;20750;-67
2022/04/12 02:43:15;;;;;;;4.40;4.00;;;;;;;3.48;96.10;99941.50;5112231;28;20678;-66
2022/04/12 02:45:42;;;;;;;3.87;3.57;;;;;;;3.43;96.48;99940.63;5112174;28;20665;-66
2022/04/12 02:48:11;;;;;;;4.23;3.93;;;;;;;3.35;97.52;99947.34;5112823;27;20305;-66
2022/04/12 02:50:40;;;;;;;4.27;4.07;;;;;;;3.35;97.60;99947.34;5111411;28;20194;-66
2022/04/12 02:53:07;;;;;;;4.50;4.10;;;;;;;3.36;97.39;99943.97;5112189;28;20646;-66
2022/04/12 02:55:34;;;;;;;4.73;4.20;;;;;;;3.21;96.97;99918.50;5109861;27;20210;-66
2022/04/12 02:58:01;;;;;;;4.07;3.87;;;;;;;3.37;96.90;99945.63;5110248;28;20202;-66
2022/04/12 03:00:28;;;;;;;5.17;3.83;;;;;;;3.40;96.31;99945.66;5111895;28;20213;-66
2022/04/12 03:02:55;;;;;;;4.20;4.00;;;;;;;3.45;95.45;99944.03;5111328;28;20270;-66
2022/04/12 03:05:22;;;;;;;4.10;3.80;;;;;;;3.47;94.22;99947.41;5111908;28;20277;-66
2022/04/12 03:07:50;;;;;;;3.57;3.37;;;;;;;3.51;93.88;99944.06;5112256;27;20682;-66
2022/04/12 03:10:17;;;;;;;3.37;3.17;;;;;;;3.56;93.76;99950.00;5111791;28;20202;-66
2022/04/12 03:12:44;;;;;;;3.33;3.13;;;;;;;3.61;93.52;99940.75;5108272;28;20309;-65
2022/04/12 03:15:11;;;;;;;3.57;3.20;;;;;;;3.57;93.52;99944.97;5110168;27;20203;-66
2022/04/12 03:17:38;;;;;;;3.97;3.77;;;;;;;3.59;93.22;99943.25;5110790;27;20731;-66
2022/04/12 03:20:05;;;;;;;4.67;3.57;;;;;;;3.60;93.20;99954.25;5109516;28;20556;-66
2022/04/12 03:22:32;;;;;;;3.20;3.00;;;;;;;3.62;93.27;99953.44;5109721;28;20282;-66
2022/04/12 03:25:02;;;;;;;3.53;3.33;;;;;;;3.66;93.17;99952.63;5109462;28;20201;-66
2022/04/12 03:27:29;;;;;;;3.23;3.07;;;;;;;3.70;92.38;99949.28;5110728;27;20202;-66
2022/04/12 03:29:56;;;;;;;3.00;2.80;;;;;;;3.75;91.15;99954.34;5109504;28;20191;-66
2022/04/12 03:32:22;;;;;;;3.23;3.03;;;;;;;3.86;90.65;99957.81;5110397;28;20219;-66
2022/04/12 03:34:50;;;;;;;3.27;3.07;;;;;;;3.94;90.05;99940.09;5111107;28;20213;-65
2022/04/12 03:37:17;;;;;;;3.40;3.20;;;;;;;3.97;90.74;99938.44;5111818;28;20628;-66
2022/04/12 03:39:45;;;;;;;3.17;2.97;;;;;;;3.97;90.65;99940.97;5111573;28;20241;-66
2022/04/12 03:42:14;;;;;;;5.63;4.00;;;;;;;3.99;91.02;99944.34;5111146;28;20950;-66
2022/04/12 03:44:42;;;;;;;4.47;4.23;;;;;;;4.00;91.05;99945.22;5111413;28;20286;-66
2022/04/12 03:47:09;;;;;;;6.87;6.03;;;;;;;3.98;91.09;99947.72;5111306;28;20201;-66
2022/04/12 03:49:36;;;;;;;21.27;14.07;;;;;;;3.95;90.91;99945.16;5111316;28;20205;-66
2022/04/12 03:52:03;;;;;;;6.35;5.85;;;;;;;3.95;90.99;99947.72;5110865;28;20289;-66
2022/04/12 03:54:29;;;;;;;5.30;4.80;;;;;;;3.92;90.75;99944.31;5111505;28;20314;-66
2022/04/12 03:56:57;;;;;;;4.70;4.30;;;;;;;3.86;91.46;99946.81;5111484;28;20195;-66
2022/04/12 03:59:25;;;;;;;4.77;4.37;;;;;;;3.80;92.27;99957.78;5111310;28;20198;-66
2022/04/12 04:01:52;;;;;;;7.00;4.60;;;;;;;3.81;91.91;99954.41;5110905;28;20277;-66
2022/04/12 04:04:19;;;;;;;5.07;4.60;;;;;;;3.83;92.08;99950.19;5111438;28;20205;-66
2022/04/12 04:06:46;;;;;;;4.93;4.50;;;;;;;3.80;91.90;99957.78;5111173;28;20210;-66
2022/04/12 04:09:13;;;;;;;5.63;5.23;;;;;;;3.88;91.84;99962.91;5110620;28;20290;-66
2022/04/12 04:11:42;;;;;;;4.67;4.40;;;;;;;3.96;91.35;99958.69;5108822;28;20325;-66
2022/04/12 04:14:10;;;;;;;7.60;4.87;;;;;;;3.99;91.00;99962.09;5111136;28;20731;-66
2022/04/12 04:16:39;;;;;;;4.83;4.47;;;;;;;4.10;90.54;99968.06;5110520;28;21811;-66
2022/04/12 04:19:08;;;;;;;6.27;5.83;;;;;;;4.10;90.81;99968.06;5111368;28;20255;-66
2022/04/12 04:21:36;;;;;;;5.90;5.50;;;;;;;4.18;90.20;99970.66;5112822;28;20554;-66
2022/04/12 04:24:03;;;;;;;5.37;4.90;;;;;;;4.26;89.54;99968.16;5115230;27;20281;-66
2022/04/12 04:26:30;;;;;;;6.70;6.10;;;;;;;4.36;88.91;99977.50;5113813;28;20392;-66
2022/04/12 04:28:57;;;;;;;6.50;6.07;;;;;;;4.52;88.50;99980.13;5114925;27;20217;-66
2022/04/12 04:31:24;;;;;;;5.93;5.43;;;;;;;4.57;87.75;99980.09;5114915;28;20283;-66
2022/04/12 04:33:52;;;;;;;6.90;6.10;;;;;;;4.66;87.46;99977.59;5114680;28;20749;-66
2022/04/12 04:36:19;;;;;;;8.13;6.57;;;;;;;4.80;86.91;99978.47;5114338;28;20199;-66
2022/04/12 04:38:46;;;;;;;6.47;5.97;;;;;;;4.93;86.60;99985.28;5114781;27;20295;-67
2022/04/12 04:41:12;;;;;;;6.57;5.73;;;;;;;5.06;86.14;99979.38;5114559;28;20195;-66
2022/04/12 04:43:39;;;;;;;7.30;6.37;;;;;;;5.18;85.53;99976.00;5114693;27;20662;-67
2022/04/12 04:46:06;;;;;;;9.80;7.97;;;;;;;5.30;85.33;99979.38;5113873;28;20195;-66
2022/04/12 04:48:33;;;;;;;8.07;7.43;;;;;;;5.42;85.57;99980.25;5113921;28;20195;-67
2022/04/12 04:51:01;;;;;;;8.67;7.00;;;;;;;5.54;85.74;99977.69;5114141;28;20286;-67
2022/04/12 04:53:28;;;;;;;6.93;6.23;;;;;;;5.70;84.51;99979.38;5114214;28;20215;-67
2022/04/12 04:55:55;;;;;;;7.27;6.80;;;;;;;5.83;84.42;99988.69;5114192;28;20293;-67
2022/04/12 04:58:22;;;;;;;7.77;7.10;;;;;;;6.06;83.49;99986.97;5113799;28;20726;-67
2022/04/12 05:00:49;;;;;;;7.57;6.87;;;;;;;6.28;81.84;99992.81;5113226;28;20230;-67
2022/04/12 05:03:16;;;;;;;12.00;7.60;;;;;;;6.46;80.25;99995.31;5113906;27;20226;-67
2022/04/12 05:05:43;;;;;;;8.73;6.90;;;;;;;6.56;80.82;99983.41;5112721;28;20616;-67
2022/04/12 05:08:11;;;;;;;7.87;6.70;;;;;;;6.72;79.75;100000.31;5113921;27;20639;-67
2022/04/12 05:10:38;;;;;;;9.47;6.27;;;;;;;6.88;79.92;100001.91;5112128;28;20194;-67
2022/04/12 05:13:05;;;;;;;7.87;6.93;;;;;;;7.11;79.97;100002.59;5113383;27;20250;-67
2022/04/12 05:15:32;;;;;;;7.80;7.10;;;;;;;7.17;79.79;99974.50;5113300;28;20734;-68
2022/04/12 05:17:59;;;;;;;5.33;5.00;;;;;;;7.29;76.85;99974.44;5113262;28;20194;-67
2022/04/12 05:20:27;;;;;;;6.53;6.03;;;;;;;7.54;76.93;100005.69;5113905;28;20202;-67
2022/04/12 05:22:54;;;;;;;5.50;5.00;;;;;;;7.66;77.15;99999.59;5105820;28;20206;-67
2022/04/12 05:25:23;;;;;;;5.00;4.70;;;;;;;7.79;75.35;99996.09;5106164;27;20203;-68
2022/04/12 05:27:50;;;;;;;4.90;4.23;;;;;;;7.97;74.93;100006.13;5112847;28;20206;-67
2022/04/12 05:30:18;;;;;;;4.10;3.80;;;;;;;8.14;73.52;99998.31;5113213;27;20195;-68
2022/04/12 05:32:45;;;;;;;4.70;4.40;;;;;;;8.27;73.66;99998.13;5113693;27;20645;-67
2022/04/12 05:35:13;;;;;;;5.30;3.77;;;;;;;8.41;72.94;100003.13;5112324;27;20293;-67
2022/04/12 05:37:44;;;;;;;3.50;3.20;;;;;;;8.65;71.63;100007.09;5113093;28;20195;-67
2022/04/12 05:40:12;;;;;;;4.00;3.70;;;;;;;8.75;72.12;99994.19;5108403;28;20203;-68
2022/04/12 05:42:41;;;;;;;3.43;3.13;;;;;;;8.91;69.73;100005.06;5111869;27;20198;-67
2022/04/12 05:45:09;;;;;;;3.30;3.00;;;;;;;9.09;68.92;100012.44;5114204;27;20289;-68
2022/04/12 05:47:44;;;;;;;3.10;2.90;;;;;;;9.26;71.64;100005.38;5112504;27;20282;-65
2022/04/12 05:50:12;;;;;;;5.03;3.07;;;;;;;9.42;68.89;100011.94;5112361;28;20202;-67
2022/04/12 05:52:39;;;;;;;4.00;3.70;;;;;;;9.57;69.92;99998.03;5111814;27;20297;-68
2022/04/12 05:55:08;;;;;;;3.90;3.60;;;;;;;9.75;71.14;100002.03;5110950;28;20198;-68
2022/04/12 05:57:48;;;;;;;4.00;3.57;;;;;;;9.88;69.00;99998.38;5111167;27;20206;-69
2022/04/12 06:00:15;;;;;;;3.83;3.43;;;;;;;10.01;67.70;99990.47;5107665;27;20880;-67
2022/04/12 06:02:42;;;;;;;3.73;3.43;;;;;;;10.00;66.34;99983.63;5109938;28;20209;-74
2022/04/12 06:05:13;;;;;;;3.33;3.03;;;;;;;10.22;66.67;99999.47;5110103;27;20583;-68
2022/04/12 06:07:40;;;;;;;3.37;3.17;;;;;;;10.57;66.31;100000.47;5110076;28;20199;-66
2022/04/12 06:10:09;;;;;;;4.73;3.40;;;;;;;10.75;66.19;100006.09;5110666;28;20195;-66
2022/04/12 06:12:35;;;;;;;5.40;2.77;;;;;;;10.93;65.31;100012.53;5113346;27;20286;-67
2022/04/12 06:15:04;;;;;;;3.20;3.00;;;;;;;11.01;63.65;100013.22;5112429;28;20226;-67
2022/04/12 06:17:32;;;;;;;2.87;2.67;;;;;;;11.25;61.91;100012.66;5112295;28;20195;-68
2022/04/12 06:20:06;;;;;;;2.50;2.30;;;;;;;11.33;62.49;100015.91;5112511;27;20191;-68
2022/04/12 06:22:34;;;;;;;3.07;2.97;;;;;;;11.39;63.27;100014.91;5112584;28;20729;-67
2022/04/12 06:25:01;;;;;;;3.27;3.17;;;;;;;11.72;63.94;100014.13;5110143;27;20286;-68
2022/04/12 06:27:32;;;;;;;3.17;2.87;;;;;;;12.01;61.49;100021.94;5112579;28;20278;-67
2022/04/12 06:30:03;;;;;;;2.90;2.80;;;;;;;11.94;58.52;100014.41;5112334;28;20194;-66
2022/04/12 06:32:31;;;;;;;3.33;3.13;;;;;;;11.99;60.75;100013.41;5112609;28;20290;-67
2022/04/12 06:34:58;;;;;;;3.47;3.27;;;;;;;12.16;60.28;100012.97;5112421;28;20666;-67
2022/04/12 06:37:26;;;;;;;2.33;2.23;;;;;;;12.30;58.49;100013.44;5112197;28;20278;-67
2022/04/12 06:39:53;;;;;;;4.33;3.33;;;;;;;12.19;56.27;100020.59;5112004;27;20207;-68
2022/04/12 06:42:21;;;;;;;2.90;2.70;;;;;;;12.27;58.03;100022.97;5111390;27;20220;-68
2022/04/12 06:44:47;;;;;;;2.30;2.20;;;;;;;12.38;55.02;100021.78;5112064;27;20336;-67
2022/04/12 06:47:16;;;;;;;2.70;2.53;;;;;;;12.41;55.85;100025.97;5110664;28;20606;-68
2022/04/12 06:49:45;;;;;;;3.03;2.90;;;;;;;12.67;55.13;100027.81;5113455;27;20198;-68
2022/04/12 06:52:13;;;;;;;5.80;3.90;;;;;;;12.61;55.90;100023.72;5112257;28;20199;-68
2022/04/12 06:54:40;;;;;;;2.47;2.37;;;;;;;12.85;56.02;100022.16;5111799;28;20745;-68
2022/04/12 06:57:07;;;;;;;3.77;2.40;;;;;;;13.00;53.27;100029.41;5111189;28;20198;-68
2022/04/12 06:59:35;;;;;;;3.20;2.23;;;;;;;13.19;53.83;100035.72;5112140;28;20191;-68
2022/04/12 07:02:02;;;;;;;2.73;2.53;;;;;;;13.47;51.69;100052.00;5111042;28;20194;-67
2022/04/12 07:04:29;;;;;;;2.70;2.50;;;;;;;13.45;51.13;100040.06;5110159;28;20199;-69
2022/04/12 07:06:58;;;;;;;3.20;2.50;;;;;;;13.64;51.41;100047.16;5111345;28;20234;-68
2022/04/12 07:09:27;;;;;;;3.13;2.73;;;;;;;13.81;50.65;100036.31;5111372;28;20689;-68
2022/04/12 07:11:54;;;;;;;1.83;1.73;;;;;;;13.98;50.14;100046.06;5111037;28;20202;-69
2022/04/12 07:14:21;;;;;;;2.30;2.20;;;;;;;14.15;51.70;100039.41;5111239;27;20214;-69
2022/04/12 07:16:48;;;;;;;4.30;2.93;;;;;;;14.11;49.14;100039.59;5112284;27;20948;-68
2022/04/12 07:19:15;;;;;;;2.13;2.03;;;;;;;14.07;50.20;100036.28;5110497;27;20289;-68
2022/04/12 07:21:42;;;;;;;2.30;2.20;;;;;;;14.21;47.85;100040.97;5111150;28;20228;-72
2022/04/12 07:24:11;;;;;;;2.50;2.40;;;;;;;14.34;48.70;100044.84;5109639;28;20206;-69
2022/04/12 07:26:38;;;;;;;1.80;1.70;;;;;;;14.48;48.68;100042.59;5110882;28;20191;-69
2022/04/12 07:29:05;;;;;;;2.30;2.13;;;;;;;14.64;48.90;100048.88;5111233;28;20198;-69
2022/04/12 07:31:33;;;;;;;2.30;2.20;;;;;;;14.84;48.46;100044.72;5110786;28;20199;-69
2022/04/12 07:34:01;;;;;;;3.10;2.17;;;;;;;14.82;46.46;100036.19;5111433;28;20264;-68
2022/04/12 07:36:28;;;;;;;2.87;2.77;;;;;;;14.87;47.33;100039.44;5111179;28;20195;-68
2022/04/12 07:38:56;;;;;;;1.97;1.87;;;;;;;14.93;46.87;100039.22;5111141;28;20230;-68
2022/04/12 07:41:24;;;;;;;2.40;2.30;;;;;;;14.94;47.88;100040.91;5112865;27;20207;-67
2022/04/12 07:43:52;;;;;;;2.20;1.83;;;;;;;15.03;47.64;100040.53;5111182;28;20191;-68
2022/04/12 07:46:19;;;;;;;1.92;1.83;;;;;;;15.12;44.31;100019.56;5110194;28;20434;-70
2022/04/12 07:48:46;;;;;;;3.10;1.60;;;;;;;15.36;45.10;100028.06;5110996;28;20191;-70
2022/04/12 07:51:13;;;;;;;2.27;2.17;;;;;;;15.42;44.82;100028.66;5111952;28;20234;-70
2022/04/12 07:53:40;;;;;;;2.40;2.30;;;;;;;15.42;46.58;100023.50;5110509;28;20253;-70
2022/04/12 07:56:08;;;;;;;2.20;2.10;;;;;;;15.64;46.90;100024.34;5109474;28;20194;-70
2022/04/12 07:58:37;;;;;;;2.13;2.03;;;;;;;15.60;46.10;100025.41;5112717;28;20505;-70
2022/04/12 08:01:04;;;;;;;1.80;1.70;;;;;;;16.01;46.27;100030.59;5116967;27;20194;-71
2022/04/12 08:03:31;;;;;;;1.80;1.80;;;;;;;15.81;42.67;100025.41;5113005;28;20210;-71
2022/04/12 08:05:58;;;;;;;2.10;1.90;;;;;;;15.83;43.72;100023.59;5113586;28;20445;-70
2022/04/12 08:08:26;;;;;;;1.90;1.80;;;;;;;15.99;43.79;100024.66;5115517;27;20662;-69
2022/04/12 08:10:53;;;;;;;1.53;1.43;;;;;;;15.95;42.55;100023.94;5115557;27;20601;-69
2022/04/12 08:13:20;;;;;;;2.00;1.90;;;;;;;16.09;44.11;100015.59;5114086;28;20252;-70
2022/04/12 08:15:49;;;;;;;1.70;1.60;;;;;;;16.29;42.12;100024.16;5116763;27;20438;-71
2022/04/12 08:18:16;;;;;;;2.00;1.90;;;;;;;16.32;39.54;100022.38;5115414;28;20224;-72
2022/04/12 08:20:42;;;;;;;2.03;1.90;;;;;;;16.57;43.98;100013.47;5115459;28;20228;-71
2022/04/12 08:23:09;;;;;;;1.97;1.87;;;;;;;16.73;44.04;100009.28;5115564;28;20199;-71
2022/04/12 08:25:36;;;;;;;1.87;1.77;;;;;;;16.77;41.77;100004.78;5115114;28;20194;-72
2022/04/12 08:28:04;;;;;;;1.33;1.33;;;;;;;16.76;39.18;100009.16;5115039;27;20582;-72
2022/04/12 08:30:31;;;;;;;1.80;1.27;;;;;;;16.64;42.79;100001.91;5115332;28;20203;-71
2022/04/12 08:33:00;;;;;;;1.47;1.47;;;;;;;16.55;39.82;100007.50;5115083;27;20275;-71
2022/04/12 08:35:27;;;;;;;1.77;1.67;;;;;;;16.43;42.12;100013.22;5118889;27;20284;-72
2022/04/12 08:37:54;;;;;;;1.73;1.63;;;;;;;16.26;41.76;100007.91;5114411;27;20717;-70
2022/04/12 08:40:22;;;;;;;2.10;1.90;;;;;;;16.38;40.16;100006.56;5113757;28;20199;-70
2022/04/12 08:42:49;;;;;;;2.27;2.17;;;;;;;16.46;46.77;99996.69;5114736;28;20210;-70
2022/04/12 08:45:16;;;;;;;2.70;1.90;;;;;;;16.54;43.10;99987.66;5115076;28;20723;-71
2022/04/12 08:47:43;;;;;;;2.00;1.90;;;;;;;16.63;42.30;99982.13;5114452;28;20285;-71
2022/04/12 08:50:11;;;;;;;2.17;2.07;;;;;;;16.83;45.78;99982.97;5117469;27;20191;-71
2022/04/12 08:52:39;;;;;;;1.83;1.73;;;;;;;16.84;41.08;99976.84;5115795;27;20202;-71
2022/04/12 08:55:08;;;;;;;1.73;1.63;;;;;;;17.00;42.63;99980.41;5114384;28;20304;-71
2022/04/12 08:57:35;;;;;;;1.57;1.47;;;;;;;16.84;42.82;99979.44;5116202;27;20634;-71
2022/04/12 09:00:02;;;;;;;2.93;1.90;;;;;;;16.73;43.27;99977.38;5114088;28;20285;-71
2022/04/12 09:02:29;;;;;;;2.07;1.97;;;;;;;16.86;43.38;99977.66;5113920;27;20289;-73
2022/04/12 09:04:56;;;;;;;1.90;1.80;;;;;;;17.07;41.91;99966.25;5113379;28;20199;-71
2022/04/12 09:07:27;;;;;;;1.80;1.70;;;;;;;17.24;46.38;99953.34;5113603;28;20286;-72
2022/04/12 09:10:03;;;;;;;2.20;1.83;;;;;;;17.31;41.04;99949.53;5112423;27;20209;-71
2022/04/12 09:12:34;;;;;;;1.53;1.53;;;;;;;17.19;42.35;99950.13;5100809;27;20285;-70
2022/04/12 09:15:01;;;;;;;1.90;1.80;;;;;;;17.15;42.15;99949.47;5107884;28;20214;-70
2022/04/12 09:17:34;;;;;;;3.23;1.53;;;;;;;17.28;43.01;99954.88;5113699;28;20194;-70
2022/04/12 09:20:01;;;;;;;2.17;2.07;;;;;;;17.12;42.67;99939.25;5110676;27;20632;-68
2022/04/12 09:22:32;;;;;;;2.13;2.03;;;;;;;16.94;41.25;99947.88;5112752;27;20722;-70
2022/04/12 09:25:00;;;;;;;1.80;1.73;;;;;;;16.86;42.66;99933.63;5113571;27;20203;-70
2022/04/12 09:27:29;;;;;;;1.73;1.70;;;;;;;17.01;40.77;99940.66;5112522;28;20281;-70
2022/04/12 09:29:59;;;;;;;1.93;1.83;;;;;;;17.22;41.97;99939.63;5114696;27;20282;-70
2022/04/12 09:32:29;;;;;;;1.80;1.70;;;;;;;17.35;41.42;99935.50;5107551;27;20201;-69
2022/04/12 09:34:58;;;;;;;4.20;2.00;;;;;;;17.53;42.83;99929.41;5110445;28;20617;-69
2022/04/12 09:37:26;;;;;;;1.77;1.67;;;;;;;17.49;42.57;99929.63;5110585;28;20290;-76
2022/04/12 09:39:55;;;;;;;1.90;1.80;;;;;;;17.59;42.40;99923.13;5110934;28;20293;-70
2022/04/12 09:42:42;;;;;;;1.83;1.73;;;;;;;17.36;41.76;99920.78;5111795;27;20225;-69
2022/04/12 09:45:11;;;;;;;1.53;1.47;;;;;;;17.23;42.35;99913.63;5107396;28;20281;-69
2022/04/12 09:47:39;;;;;;;1.87;1.77;;;;;;;17.24;41.13;99919.66;5114039;27;20227;-69
2022/04/12 09:50:07;;;;;;;2.20;2.00;;;;;;;17.27;41.77;99919.50;5112828;28;20240;-69
2022/04/12 09:52:34;;;;;;;1.90;1.80;;;;;;;17.30;42.82;99916.75;5112539;28;20558;-70
2022/04/12 09:55:03;;;;;;;1.63;1.60;;;;;;;17.27;37.94;99901.38;5111038;27;20219;-71
2022/04/12 09:57:31;;;;;;;2.23;1.43;;;;;;;17.40;38.42;99899.84;5107024;28;20206;-69
2022/04/12 09:59:59;;;;;;;1.73;1.70;;;;;;;17.52;40.44;99880.22;5110578;28;20293;-70
2022/04/12 10:02:27;;;;;;;1.80;1.70;;;;;;;17.87;40.85;99896.63;5110637;27;20289;-69
2022/04/12 10:04:56;;;;;;;1.70;1.60;;;;;;;17.81;40.13;99893.41;5112473;27;20299;-70
2022/04/12 10:07:25;;;;;;;1.97;1.87;;;;;;;17.72;36.93;99883.53;5109816;27;20654;-70
2022/04/12 10:09:53;;;;;;;2.33;1.80;;;;;;;17.73;41.76;99880.03;5111450;27;20198;-68
2022/04/12 10:12:21;;;;;;;7.40;2.73;;;;;;;17.75;40.89;99873.00;5109979;28;20195;-70
2022/04/12 10:14:48;;;;;;;1.30;1.30;;;;;;;17.66;40.58;99868.28;5110254;28;20221;-68
2022/04/12 10:17:15;;;;;;;1.27;1.20;;;;;;;17.60;40.13;99868.59;5110650;28;20749;-68
2022/04/12 10:19:43;;;;;;;1.20;1.10;;;;;;;17.77;41.41;99870.34;5111225;28;20555;-68
2022/04/12 10:22:11;;;;;;;1.20;1.20;;;;;;;17.76;37.54;99853.94;5111866;28;20210;-72
2022/04/12 10:24:39;;;;;;;1.40;1.40;;;;;;;17.81;38.22;99851.91;5111086;28;20210;-70
2022/04/12 10:27:07;;;;;;;1.60;1.50;;;;;;;17.87;38.52;99844.75;5112199;28;20198;-71
2022/04/12 10:29:38;;;;;;;1.97;1.57;;;;;;;17.98;36.38;99852.78;5111408;28;20317;-72
2022/04/12 10:32:06;;;;;;;1.73;1.70;;;;;;;18.07;38.83;99847.09;5105527;28;20210;-71
2022/04/12 10:34:33;;;;;;;1.30;1.30;;;;;;;18.18;38.61;99845.63;5109934;28;20310;-72
2022/04/12 10:37:04;;;;;;;1.83;1.73;;;;;;;18.26;36.56;99837.41;5110972;28;20206;-74
2022/04/12 10:39:37;;;;;;;1.60;1.50;;;;;;;18.31;37.37;99845.78;5111584;28;20241;-73
2022/04/12 10:42:07;;;;;;;1.80;1.70;;;;;;;18.14;36.00;99836.31;5111784;28;20243;-72
2022/04/12 10:44:41;;;;;;;1.37;1.30;;;;;;;18.09;35.67;99825.38;5109593;28;20202;-71
2022/04/12 10:47:24;;;;;;;2.17;2.07;;;;;;;18.27;38.43;99818.31;5113014;27;20208;-71
2022/04/12 10:49:59;;;;;;;1.50;1.40;;;;;;;18.38;37.78;99812.53;5109582;28;20206;-71
2022/04/12 10:52:38;;;;;;;1.73;1.70;;;;;;;18.35;35.02;99808.38;5111831;28;20198;-71
2022/04/12 10:55:07;;;;;;;1.47;1.37;;;;;;;18.24;36.64;99811.53;5110930;28;20219;-71
2022/04/12 10:57:34;;;;;;;1.33;1.30;;;;;;;18.45;39.39;99801.72;5111576;28;20203;-71
2022/04/12 11:00:10;;;;;;;1.30;1.30;;;;;;;18.58;37.54;99802.72;5111091;28;20334;-70
2022/04/12 11:02:40;;;;;;;1.10;1.10;;;;;;;18.73;38.32;99796.69;5111057;28;20228;-71
2022/04/12 11:05:08;;;;;;;3.00;1.70;;;;;;;18.70;36.11;99791.66;5109127;28;20748;-67
2022/04/12 11:07:37;;;;;;;2.67;1.47;;;;;;;18.73;39.29;99786.28;5106576;28;20207;-68
2022/04/12 11:10:23;;;;;;;1.40;1.30;;;;;;;18.72;35.60;99784.63;5107532;28;20203;-69
2022/04/12 11:12:52;;;;;;;1.77;1.67;;;;;;;18.81;34.11;99784.09;5102868;28;20204;-70
2022/04/12 11:15:28;;;;;;;1.70;1.60;;;;;;;18.78;36.18;99773.88;5108781;28;20271;-68
2022/04/12 11:18:10;;;;;;;1.43;1.43;;;;;;;18.79;36.52;99770.34;5109526;28;20206;-71
2022/04/12 11:20:39;;;;;;;1.33;1.30;;;;;;;18.69;35.27;99766.63;5111499;28;20195;-69
2022/04/12 11:23:09;;;;;;;2.73;1.70;;;;;;;18.67;35.29;99771.06;5106323;28;20261;-69
2022/04/12 11:25:44;;;;;;;1.50;1.50;;;;;;;18.76;35.99;99770.53;5108625;28;20598;-69
2022/04/12 11:28:14;;;;;;;1.47;1.37;;;;;;;18.84;36.13;99760.53;5111341;28;20905;-71
2022/04/12 11:30:54;;;;;;;6.90;1.80;;;;;;;18.96;36.44;99758.16;5110919;28;20202;-70
2022/04/12 11:33:24;;;;;;;1.47;1.43;;;;;;;19.09;34.49;99761.69;5109500;28;20210;-69
2022/04/12 11:35:52;;;;;;;1.47;1.40;;;;;;;18.95;31.29;99754.72;5108841;28;20646;-70
2022/04/12 11:38:21;;;;;;;1.50;1.40;;;;;;;19.03;34.56;99751.66;5109738;28;20222;-69
2022/04/12 11:40:48;;;;;;;1.80;1.40;;;;;;;19.08;34.25;99754.81;5110862;28;20210;-71
2022/04/12 11:43:23;;;;;;;1.43;1.43;;;;;;;18.78;32.63;99741.84;5110387;28;20294;-69